Time;durP1;ratioP1;P1;durP2;ratioP2;P2;SDS_P1;SDS_P2;PMS_P1;PMS_P2;Temp;Humidity;BMP_temperature;BMP_pressure;BME280_temperature;BME280_humidity;BME280_pressure;Samples;Min_cycle;Max_cycle;Signal;HPM_P1;HPM_P2
2023/09/28 00:05:44;;;;;;;8.85;6.55;;;;;;;18.44;88.87;101345.13;10472526;28;20049;-70
2023/09/28 00:11:06;;;;;;;8.93;6.07;;;;;;;18.44;88.38;101358.25;10471604;28;20057;-70
2023/09/28 00:16:28;;;;;;;7.75;6.07;;;;;;;18.45;88.26;101362.59;10466864;28;20520;-69
2023/09/28 00:21:50;;;;;;;9.90;6.22;;;;;;;18.44;88.25;101354.81;10467715;28;20048;-69
2023/09/28 00:27:12;;;;;;;9.60;5.90;;;;;;;18.40;88.58;101329.66;10450946;28;20037;-69
2023/09/28 00:32:34;;;;;;;10.15;6.28;;;;;;;18.42;87.52;101343.56;10464249;28;20048;-69
2023/09/28 00:37:55;;;;;;;8.25;6.28;;;;;;;18.41;87.65;101353.19;10465487;28;20512;-70
2023/09/28 00:43:25;;;;;;;8.00;5.20;;;;;;;18.47;87.40;101362.50;10458147;28;20052;-69
2023/09/28 00:49:05;;;;;;;7.15;5.90;;;;;;;18.48;87.62;101385.13;10460739;28;20125;-69
2023/09/28 00:54:27;;;;;;;7.15;5.30;;;;;;;18.44;87.72;101389.69;10462359;28;20055;-68
2023/09/28 00:59:49;;;;;;;8.65;5.90;;;;;;;18.42;88.00;101396.78;10459256;28;20051;-68
2023/09/28 01:05:13;;;;;;;8.77;5.80;;;;;;;18.36;88.55;101376.16;10462530;28;20554;-69
2023/09/28 01:10:36;;;;;;;6.82;5.90;;;;;;;18.37;88.49;101359.47;10468509;28;20063;-69
2023/09/28 01:15:58;;;;;;;6.10;5.50;;;;;;;18.35;88.55;101363.94;10460960;28;20052;-69
2023/09/28 01:21:19;;;;;;;8.65;6.03;;;;;;;18.39;88.12;101362.00;10461040;28;20052;-69
2023/09/28 01:26:41;;;;;;;7.22;5.30;;;;;;;18.38;88.45;101342.84;10451159;28;20052;-69
2023/09/28 01:32:03;;;;;;;9.70;5.82;;;;;;;18.42;87.67;101343.56;10460608;28;20132;-69
2023/09/28 01:37:31;;;;;;;10.38;6.00;;;;;;;18.39;87.84;101323.56;10464240;28;20075;-69
2023/09/28 01:42:54;;;;;;;7.95;5.35;;;;;;;18.40;87.70;101335.75;10462106;28;20049;-69
2023/09/28 01:48:15;;;;;;;7.78;6.13;;;;;;;18.41;86.98;101324.34;10457363;28;20045;-69
2023/09/28 01:53:38;;;;;;;7.38;5.05;;;;;;;18.43;87.58;101312.00;10474571;28;20356;-69
2023/09/28 01:58:59;;;;;;;6.38;5.40;;;;;;;18.44;86.71;101318.94;10460983;28;20036;-69
2023/09/28 02:04:21;;;;;;;5.53;5.00;;;;;;;18.46;87.10;101308.38;10453405;28;20059;-69
2023/09/28 02:09:43;;;;;;;6.05;5.30;;;;;;;18.50;86.30;101300.25;10459619;28;20432;-69
2023/09/28 02:15:06;;;;;;;8.02;4.85;;;;;;;18.47;87.14;101295.19;10467914;28;20043;-69
2023/09/28 02:20:30;;;;;;;7.28;4.78;;;;;;;18.47;86.06;101315.31;10463696;28;20049;-68
2023/09/28 02:25:51;;;;;;;5.70;4.60;;;;;;;18.43;86.72;101309.41;10463403;28;20044;-69
2023/09/28 02:31:13;;;;;;;5.25;4.43;;;;;;;18.46;85.70;101318.88;10454968;28;20094;-69
2023/09/28 02:36:35;;;;;;;10.02;5.78;;;;;;;18.50;85.31;101321.22;10475357;28;20604;-69
2023/09/28 02:41:57;;;;;;;7.93;5.20;;;;;;;18.51;85.68;101317.69;10461209;28;20136;-69
2023/09/28 02:47:19;;;;;;;6.72;5.63;;;;;;;18.53;84.90;101321.03;10452466;28;20041;-69
2023/09/28 02:52:43;;;;;;;7.45;4.95;;;;;;;18.52;85.24;101314.13;10462164;28;20056;-69
2023/09/28 02:58:04;;;;;;;5.68;4.75;;;;;;;18.53;85.16;101307.13;10450864;28;20508;-69
2023/09/28 03:03:26;;;;;;;7.60;5.00;;;;;;;18.49;85.48;101293.34;10461722;28;20086;-68
2023/09/28 03:08:48;;;;;;;14.65;5.32;;;;;;;18.48;85.05;101323.09;10469886;28;20049;-68
2023/09/28 03:14:10;;;;;;;6.65;5.00;;;;;;;18.46;85.19;101321.50;10462206;28;20044;-68
2023/09/28 03:19:33;;;;;;;6.15;4.75;;;;;;;18.48;85.61;101338.81;10461608;28;20136;-68
2023/09/28 03:24:54;;;;;;;6.55;4.85;;;;;;;18.42;86.06;101333.88;10478971;28;20056;-68
2023/09/28 03:30:18;;;;;;;7.35;4.75;;;;;;;18.40;85.85;101335.75;10472624;28;20042;-68
2023/09/28 03:35:40;;;;;;;5.05;4.38;;;;;;;18.38;86.47;101334.13;10472897;28;20069;-68
2023/09/28 03:41:01;;;;;;;6.22;5.05;;;;;;;18.36;86.16;101323.72;10464834;28;21003;-68
2023/09/28 03:46:23;;;;;;;7.53;5.00;;;;;;;18.33;86.07;101339.59;10473864;28;20045;-69
2023/09/28 03:51:44;;;;;;;6.65;5.00;;;;;;;18.32;85.93;101343.16;10473472;28;20059;-70
2023/09/28 03:57:07;;;;;;;5.80;4.60;;;;;;;18.31;86.21;101331.00;10467747;28;20066;-70
2023/09/28 04:02:34;;;;;;;5.90;4.65;;;;;;;18.27;86.53;101339.94;10467544;28;20407;-68
2023/09/28 04:07:56;;;;;;;6.85;4.57;;;;;;;18.25;86.29;101347.03;10461458;28;20106;-69
2023/09/28 04:13:18;;;;;;;5.88;4.60;;;;;;;18.24;87.02;101366.28;10467559;28;20060;-69
2023/09/28 04:18:39;;;;;;;5.45;4.38;;;;;;;18.19;86.75;101365.69;10483171;28;20048;-69
2023/09/28 04:24:02;;;;;;;6.68;4.90;;;;;;;18.15;86.77;101366.78;10464758;28;20055;-69
2023/09/28 04:29:27;;;;;;;6.72;5.05;;;;;;;18.16;86.68;101368.50;10461859;28;20060;-69
2023/09/28 04:34:48;;;;;;;6.70;4.18;;;;;;;18.13;86.69;101375.66;10461121;28;20047;-69
2023/09/28 04:40:11;;;;;;;5.72;4.78;;;;;;;18.15;86.45;101382.50;10466104;28;20409;-69
2023/09/28 04:45:33;;;;;;;6.32;4.68;;;;;;;18.17;86.50;101385.88;10465153;28;20458;-69
2023/09/28 04:50:55;;;;;;;5.72;4.65;;;;;;;18.16;86.02;101378.97;10459163;28;20138;-69
2023/09/28 04:56:17;;;;;;;10.32;5.40;;;;;;;18.14;86.15;101393.94;10467705;28;20041;-68
2023/09/28 05:01:41;;;;;;;6.70;5.28;;;;;;;18.16;85.81;101399.06;10463894;28;20053;-68
2023/09/28 05:07:04;;;;;;;9.93;5.43;;;;;;;18.14;86.28;101400.94;10462522;28;20078;-68
2023/09/28 05:12:26;;;;;;;7.22;4.93;;;;;;;18.14;86.24;101401.78;10475730;28;20547;-70
2023/09/28 05:17:48;;;;;;;9.35;4.95;;;;;;;18.10;86.74;101397.63;10460506;28;20040;-70
2023/09/28 05:23:10;;;;;;;8.93;5.30;;;;;;;18.02;87.23;101410.25;10471975;28;20049;-70
2023/09/28 05:28:31;;;;;;;12.93;5.15;;;;;;;17.92;87.62;101411.66;10462779;28;20044;-69
2023/09/28 05:33:53;;;;;;;8.25;5.50;;;;;;;17.85;88.12;101416.38;10451119;28;20041;-69
2023/09/28 05:39:17;;;;;;;7.55;5.45;;;;;;;17.81;88.24;101412.22;10460611;28;20167;-67
2023/09/28 05:44:39;;;;;;;11.35;5.30;;;;;;;17.77;88.81;101409.81;10450352;28;20050;-67
2023/09/28 05:50:07;;;;;;;6.15;5.50;;;;;;;17.73;88.63;101418.75;10453841;28;20052;-67
2023/09/28 05:55:29;;;;;;;7.80;5.95;;;;;;;17.71;88.88;101433.69;10444280;28;20044;-63
2023/09/28 06:00:50;;;;;;;7.80;5.80;;;;;;;17.67;89.20;101438.22;10462027;28;20066;-62
2023/09/28 06:06:17;;;;;;;8.30;5.60;;;;;;;17.63;89.51;101451.56;10444120;28;20087;-63
2023/09/28 06:11:39;;;;;;;6.68;5.93;;;;;;;17.64;89.45;101458.47;10457555;28;20045;-63
2023/09/28 06:17:01;;;;;;;9.73;6.35;;;;;;;17.68;89.20;101465.25;10466207;28;20044;-63
2023/09/28 06:22:22;;;;;;;7.30;6.07;;;;;;;17.75;88.89;101456.16;10458723;28;20055;-63
2023/09/28 06:27:44;;;;;;;7.22;6.13;;;;;;;17.76;89.26;101468.34;10472800;28;20101;-64
2023/09/28 06:33:05;;;;;;;7.78;5.72;;;;;;;17.78;90.01;101472.56;10454492;28;20053;-64
2023/09/28 06:38:27;;;;;;;11.02;6.00;;;;;;;17.83;89.82;101485.47;10459979;28;20041;-63
2023/09/28 06:43:49;;;;;;;10.15;6.55;;;;;;;17.93;89.18;101486.69;10453731;28;20044;-64
2023/09/28 06:49:12;;;;;;;12.43;6.82;;;;;;;17.97;89.20;101499.56;10441573;28;20398;-63
2023/09/28 06:54:34;;;;;;;9.63;6.38;;;;;;;17.97;89.48;101499.56;10451994;28;20416;-63
2023/09/28 06:59:55;;;;;;;10.13;6.85;;;;;;;18.05;89.32;101517.53;10465124;28;20110;-63
2023/09/28 07:05:17;;;;;;;10.10;6.75;;;;;;;18.10;89.32;101531.22;10477545;28;20045;-63
2023/09/28 07:10:39;;;;;;;9.13;6.13;;;;;;;18.12;89.88;101526.75;10476034;28;20055;-63
2023/09/28 07:16:02;;;;;;;10.68;6.32;;;;;;;18.20;89.13;101540.34;10468579;28;20049;-63
2023/09/28 07:21:24;;;;;;;9.82;6.78;;;;;;;18.22;89.54;101530.59;10471460;28;20049;-64
2023/09/28 07:26:46;;;;;;;9.68;6.28;;;;;;;18.26;89.72;101534.78;10469515;28;20099;-64
2023/09/28 07:32:08;;;;;;;7.20;6.10;;;;;;;18.35;89.49;101552.66;10462306;28;20051;-64
2023/09/28 07:37:30;;;;;;;11.38;6.43;;;;;;;18.44;89.06;101554.84;10458697;28;20056;-63
2023/09/28 07:42:52;;;;;;;9.55;5.78;;;;;;;18.52;88.66;101547.44;10463930;28;20052;-64
2023/09/28 07:48:14;;;;;;;8.95;5.80;;;;;;;18.65;88.75;101566.00;10474504;28;20132;-63
2023/09/28 07:53:36;;;;;;;9.43;4.93;;;;;;;18.84;86.44;101574.63;10465850;28;20052;-64
2023/09/28 07:58:59;;;;;;;10.77;4.70;;;;;;;18.97;86.97;101586.19;10461105;28;20037;-63
2023/09/28 08:04:21;;;;;;;13.38;4.47;;;;;;;19.06;85.27;101594.38;10461216;28;20051;-63
2023/09/28 08:09:43;;;;;;;9.50;3.97;;;;;;;19.16;85.31;101607.03;10465424;28;20048;-63
2023/09/28 08:15:05;;;;;;;7.82;3.70;;;;;;;19.27;84.11;101602.91;10469981;28;20114;-63
2023/09/28 08:20:35;;;;;;;12.48;3.97;;;;;;;19.38;84.19;101639.09;10462691;28;20512;-64
2023/09/28 08:25:57;;;;;;;19.07;3.73;;;;;;;19.53;82.20;101635.66;10480448;28;20051;-63
2023/09/28 08:31:19;;;;;;;21.08;3.63;;;;;;;19.53;81.80;101635.66;10483007;28;20045;-63
2023/09/28 08:36:40;;;;;;;20.83;3.60;;;;;;;19.58;81.58;101644.13;10467539;28;20044;-63
2023/09/28 08:42:06;;;;;;;17.48;3.63;;;;;;;19.66;80.55;101641.94;10466299;28;20059;-63
2023/09/28 08:47:34;;;;;;;16.30;3.72;;;;;;;19.65;80.35;101646.34;10458442;28;20040;-63
2023/09/28 08:52:57;;;;;;;22.25;3.83;;;;;;;19.67;80.74;101633.13;10464203;28;20528;-63
2023/09/28 08:58:20;;;;;;;20.55;4.05;;;;;;;19.74;80.36;101635.34;10456091;28;20500;-64
2023/09/28 09:03:42;;;;;;;25.80;4.03;;;;;;;19.72;80.37;101639.00;10469665;28;20059;-64
2023/09/28 09:09:07;;;;;;;18.85;3.85;;;;;;;19.76;79.81;101640.53;10470435;28;20131;-64
2023/09/28 09:14:28;;;;;;;23.75;3.85;;;;;;;19.80;79.35;101644.66;10469898;28;20063;-64
2023/09/28 09:19:54;;;;;;;21.25;3.78;;;;;;;19.93;79.33;101651.78;10471650;28;20607;-64
2023/09/28 09:25:15;;;;;;;23.05;4.03;;;;;;;20.00;79.13;101649.66;10457155;28;20060;-64
2023/09/28 09:30:37;;;;;;;16.65;3.58;;;;;;;19.99;79.31;101650.59;10468784;28;20060;-64
2023/09/28 09:35:59;;;;;;;20.13;3.20;;;;;;;19.99;78.54;101663.75;10462834;28;20039;-62
2023/09/28 09:41:21;;;;;;;27.90;4.28;;;;;;;20.04;78.42;101673.06;10468809;28;20133;-63
2023/09/28 09:46:43;;;;;;;23.98;3.88;;;;;;;20.11;77.84;101678.00;10470221;28;20102;-64
2023/09/28 09:52:06;;;;;;;20.83;3.03;;;;;;;20.16;77.42;101663.66;10470179;28;20488;-63
2023/09/28 09:57:34;;;;;;;23.02;3.78;;;;;;;20.28;76.58;101663.00;10470182;28;20041;-63
2023/09/28 10:02:57;;;;;;;21.88;3.67;;;;;;;20.32;76.04;101654.00;10468911;28;20044;-63
2023/09/28 10:08:20;;;;;;;18.05;3.80;;;;;;;20.37;76.21;101657.19;10484260;28;20048;-63
2023/09/28 10:13:42;;;;;;;24.50;3.45;;;;;;;20.43;75.61;101666.53;10464748;28;20056;-63
2023/09/28 10:19:05;;;;;;;21.35;3.85;;;;;;;20.53;74.86;101663.25;10467818;28;20106;-64
2023/09/28 10:24:35;;;;;;;22.25;4.00;;;;;;;20.56;75.78;101673.63;10463632;28;20071;-64
2023/09/28 10:30:19;;;;;;;20.48;3.40;;;;;;;20.67;73.85;101684.38;10470329;28;20135;-63
2023/09/28 10:35:41;;;;;;;24.70;3.33;;;;;;;20.66;74.37;101697.59;10465214;28;20147;-64
2023/09/28 10:41:06;;;;;;;21.90;3.67;;;;;;;20.67;74.76;101686.16;10466620;28;20451;-63
2023/09/28 10:46:29;;;;;;;25.48;3.40;;;;;;;20.72;75.31;101692.00;10468832;28;20039;-64
2023/09/28 10:51:52;;;;;;;22.83;3.67;;;;;;;20.78;74.56;101674.06;10468990;28;20531;-64
2023/09/28 10:57:15;;;;;;;15.57;3.72;;;;;;;20.87;74.33;101704.25;10450392;28;20143;-63
2023/09/28 11:02:37;;;;;;;19.38;3.33;;;;;;;20.93;73.72;101693.38;10493888;28;20059;-63
2023/09/28 11:08:04;;;;;;;17.65;3.60;;;;;;;20.95;71.89;101689.69;10465561;28;20040;-63
2023/09/28 11:13:25;;;;;;;15.07;3.10;;;;;;;20.96;73.86;101688.78;10463118;28;20118;-63
2023/09/28 11:18:48;;;;;;;16.10;3.42;;;;;;;20.97;73.14;101684.34;10467015;28;20041;-63
2023/09/28 11:24:11;;;;;;;16.38;3.45;;;;;;;21.03;73.75;101684.00;10464762;28;20064;-63
2023/09/28 11:29:34;;;;;;;20.77;3.55;;;;;;;21.09;74.64;101682.81;10468227;28;20049;-64
2023/09/28 11:34:58;;;;;;;18.30;3.30;;;;;;;21.06;73.95;101690.91;10471759;28;20393;-63
2023/09/28 11:40:20;;;;;;;14.45;3.20;;;;;;;21.16;73.54;101690.25;10464909;28;20549;-63
2023/09/28 11:45:42;;;;;;;13.60;3.45;;;;;;;21.25;73.20;101691.47;10467184;28;20049;-63
2023/09/28 11:51:05;;;;;;;20.58;3.63;;;;;;;21.28;72.86;101701.84;10455941;28;20048;-63
2023/09/28 11:56:27;;;;;;;18.23;3.50;;;;;;;21.25;72.97;101684.41;10477878;28;20044;-63
2023/09/28 12:01:53;;;;;;;24.17;3.90;;;;;;;21.23;73.30;101680.19;10474397;28;20127;-63
2023/09/28 12:07:19;;;;;;;17.98;3.47;;;;;;;21.34;73.01;101693.53;10476939;28;20076;-63
2023/09/28 12:12:41;;;;;;;23.73;3.80;;;;;;;21.43;72.84;101682.44;10475039;28;20048;-63
2023/09/28 12:18:04;;;;;;;12.90;3.35;;;;;;;21.50;72.32;101667.97;10477378;28;20040;-63
2023/09/28 12:23:26;;;;;;;18.10;3.80;;;;;;;21.55;71.65;101686.97;10464956;28;20395;-63
2023/09/28 12:28:47;;;;;;;21.08;3.60;;;;;;;21.60;71.94;101690.16;10473541;28;20040;-63
2023/09/28 12:34:09;;;;;;;27.83;3.90;;;;;;;21.62;70.45;101688.28;10474836;28;20139;-63
2023/09/28 12:39:32;;;;;;;19.80;3.05;;;;;;;21.62;72.24;101698.81;10473977;28;20052;-63
2023/09/28 12:44:53;;;;;;;19.10;3.33;;;;;;;21.63;71.59;101690.81;10471552;28;20044;-63
2023/09/28 12:50:15;;;;;;;18.35;3.83;;;;;;;21.79;71.61;101693.38;10472271;28;20043;-63
2023/09/28 12:55:37;;;;;;;22.15;3.45;;;;;;;21.95;71.65;101686.19;10476127;28;20044;-63
2023/09/28 13:00:59;;;;;;;14.68;2.95;;;;;;;21.98;71.68;101688.63;10477867;28;20048;-63
2023/09/28 13:06:21;;;;;;;16.23;3.28;;;;;;;21.94;71.19;101689.75;10469962;28;20040;-63
2023/09/28 13:11:43;;;;;;;20.88;3.35;;;;;;;21.94;69.81;101689.75;10459211;28;20063;-64
2023/09/28 13:17:06;;;;;;;20.17;3.38;;;;;;;21.92;70.99;101681.13;10470116;28;20044;-64
2023/09/28 13:22:28;;;;;;;21.58;3.47;;;;;;;21.89;70.62;101686.59;10470874;28;20049;-62
2023/09/28 13:27:51;;;;;;;16.92;3.25;;;;;;;21.95;69.56;101681.78;10468418;28;21336;-62
2023/09/28 13:33:14;;;;;;;20.30;3.13;;;;;;;21.99;69.54;101698.25;10471263;28;20052;-62
2023/09/28 13:38:35;;;;;;;21.70;3.42;;;;;;;21.97;70.37;101698.31;10477685;28;20044;-64
2023/09/28 13:43:58;;;;;;;18.23;3.20;;;;;;;21.92;71.58;101703.03;10466236;28;20076;-64
2023/09/28 13:49:23;;;;;;;19.42;3.25;;;;;;;21.95;69.78;101700.25;10469205;28;20131;-63
2023/09/28 13:54:45;;;;;;;17.80;3.38;;;;;;;22.14;68.94;101697.25;10465675;28;20077;-63
2023/09/28 14:00:13;;;;;;;15.00;2.80;;;;;;;22.21;68.62;101697.72;10464703;28;20040;-64
2023/09/28 14:05:38;;;;;;;19.90;3.67;;;;;;;22.21;70.94;101688.03;10472452;28;20056;-64
2023/09/28 14:10:59;;;;;;;16.17;3.33;;;;;;;22.14;70.42;101685.88;10464099;28;20481;-63
2023/09/28 14:16:21;;;;;;;20.15;3.40;;;;;;;22.07;70.69;101698.59;10466530;28;20051;-63
2023/09/28 14:21:43;;;;;;;17.52;3.58;;;;;;;22.01;71.01;101696.38;10473041;28;20139;-64
2023/09/28 14:27:04;;;;;;;15.85;3.38;;;;;;;21.97;71.78;101700.13;10469292;28;20416;-64
2023/09/28 14:32:29;;;;;;;17.90;3.35;;;;;;;22.06;70.20;101699.56;10465451;28;20062;-64
2023/09/28 14:37:51;;;;;;;13.63;3.08;;;;;;;22.10;68.51;101702.84;10460694;28;20451;-64
2023/09/28 14:43:12;;;;;;;20.00;3.88;;;;;;;22.12;70.25;101693.03;10462313;28;20041;-64
2023/09/28 14:48:34;;;;;;;20.75;3.38;;;;;;;22.12;70.39;101693.91;10470372;28;20047;-64
2023/09/28 14:53:56;;;;;;;17.52;3.28;;;;;;;22.16;72.47;101687.44;10471588;28;20076;-64
2023/09/28 14:59:18;;;;;;;17.15;3.15;;;;;;;22.15;71.22;101698.09;10465447;28;20132;-64
2023/09/28 15:04:40;;;;;;;22.50;3.70;;;;;;;22.05;68.74;101692.56;10464018;28;20114;-64
2023/09/28 15:10:04;;;;;;;17.20;2.88;;;;;;;21.99;69.08;101699.06;10465928;28;20047;-63
2023/09/28 15:15:26;;;;;;;19.92;3.20;;;;;;;21.92;69.67;101707.50;10472364;28;20060;-63
2023/09/28 15:20:48;;;;;;;18.40;3.25;;;;;;;21.85;71.28;101680.66;10465580;28;20043;-63
2023/09/28 15:26:09;;;;;;;18.63;2.95;;;;;;;21.82;71.38;101682.66;10467962;28;20048;-64
2023/09/28 15:31:31;;;;;;;13.88;2.67;;;;;;;21.79;71.63;101674.94;10474306;28;20458;-64
2023/09/28 15:36:53;;;;;;;21.30;3.10;;;;;;;21.86;70.53;101678.88;10472975;28;20052;-63
2023/09/28 15:42:14;;;;;;;23.60;3.28;;;;;;;21.97;71.19;101684.31;10474476;28;20044;-62
2023/09/28 15:47:41;;;;;;;20.00;3.17;;;;;;;21.97;70.83;101681.69;10469515;28;20052;-63
2023/09/28 15:53:04;;;;;;;19.17;3.33;;;;;;;21.89;72.11;101660.22;10474454;28;20049;-63
2023/09/28 15:58:26;;;;;;;15.90;3.10;;;;;;;21.79;72.70;101659.13;10466759;28;20056;-63
2023/09/28 16:03:51;;;;;;;21.15;3.60;;;;;;;21.68;70.35;101661.56;10476164;28;20048;-64
2023/09/28 16:09:13;;;;;;;19.02;3.42;;;;;;;21.59;73.02;101670.88;10491212;28;20140;-63
2023/09/28 16:14:35;;;;;;;16.80;3.63;;;;;;;21.47;74.05;101673.41;10486093;28;20067;-63
2023/09/28 16:19:56;;;;;;;18.17;3.10;;;;;;;21.35;74.18;101672.41;10471238;28;20049;-63
2023/09/28 16:25:18;;;;;;;23.27;3.72;;;;;;;21.28;73.94;101675.50;10481172;28;20048;-63
2023/09/28 16:30:40;;;;;;;17.95;2.83;;;;;;;21.26;74.57;101674.75;10473522;28;20033;-63
2023/09/28 16:36:02;;;;;;;15.50;3.15;;;;;;;21.22;75.42;101674.09;10468510;28;20123;-64
2023/09/28 16:41:23;;;;;;;16.65;3.15;;;;;;;21.18;75.59;101676.97;10471983;28;20127;-62
2023/09/28 16:46:45;;;;;;;12.82;3.00;;;;;;;21.14;75.32;101686.00;10471137;28;20056;-62
2023/09/28 16:52:07;;;;;;;14.25;2.92;;;;;;;21.10;74.94;101692.41;10471740;28;20056;-62
2023/09/28 16:57:28;;;;;;;14.05;3.00;;;;;;;21.10;74.40;101692.41;10467407;28;20131;-62
2023/09/28 17:02:50;;;;;;;19.98;3.25;;;;;;;21.05;74.98;101686.53;10477017;28;20041;-62
2023/09/28 17:08:12;;;;;;;21.77;4.00;;;;;;;21.02;75.32;101698.13;10469942;28;20464;-62
2023/09/28 17:13:33;;;;;;;20.55;3.55;;;;;;;20.91;76.11;101705.78;10469717;28;20041;-63
2023/09/28 17:18:57;;;;;;;23.23;3.47;;;;;;;20.80;76.57;101698.47;10462089;28;20349;-62
2023/09/28 17:24:19;;;;;;;16.52;3.17;;;;;;;20.72;76.47;101706.00;10464545;28;20052;-63
2023/09/28 17:29:41;;;;;;;17.75;3.05;;;;;;;20.64;76.83;101696.84;10469468;28;20048;-62
2023/09/28 17:35:02;;;;;;;21.58;3.22;;;;;;;20.54;77.71;101704.44;10475352;28;20576;-63
2023/09/28 17:40:25;;;;;;;20.55;3.50;;;;;;;20.41;77.81;101700.81;10473617;28;20040;-63
2023/09/28 17:45:48;;;;;;;23.98;3.58;;;;;;;20.34;77.25;101704.72;10469706;28;20158;-62
2023/09/28 17:51:10;;;;;;;16.42;3.22;;;;;;;20.26;77.94;101704.28;10469964;28;20127;-62
2023/09/28 17:56:32;;;;;;;18.17;3.65;;;;;;;20.16;78.00;101695.19;10471526;28;20044;-62
2023/09/28 18:01:54;;;;;;;19.98;3.65;;;;;;;20.06;78.68;101701.88;10471229;28;20059;-62
2023/09/28 18:07:16;;;;;;;17.25;3.45;;;;;;;19.97;79.09;101687.50;10460724;28;20501;-62
2023/09/28 18:12:37;;;;;;;21.35;3.45;;;;;;;19.88;79.18;101697.66;10469706;28;20055;-62
2023/09/28 18:17:59;;;;;;;18.05;4.72;;;;;;;19.76;79.44;101685.19;10462984;28;20040;-62
2023/09/28 18:23:21;;;;;;;26.33;3.42;;;;;;;19.69;80.01;101673.28;10453622;28;20084;-63
2023/09/28 18:28:43;;;;;;;15.90;3.53;;;;;;;19.63;79.95;101678.91;10466314;28;20152;-63
2023/09/28 18:34:05;;;;;;;15.68;3.90;;;;;;;19.58;79.88;101691.41;10466896;28;20053;-64
2023/09/28 18:39:27;;;;;;;19.92;3.13;;;;;;;19.52;80.43;101686.50;10466222;28;20135;-64
2023/09/28 18:44:49;;;;;;;23.23;4.03;;;;;;;19.53;80.58;101693.44;10465949;28;20492;-64
2023/09/28 18:50:10;;;;;;;15.43;3.50;;;;;;;19.52;80.83;101691.75;10465252;28;20408;-64
2023/09/28 18:55:32;;;;;;;20.27;4.05;;;;;;;19.50;80.71;101688.34;10467456;28;20045;-64
2023/09/28 19:00:54;;;;;;;16.30;3.78;;;;;;;19.46;80.56;101692.94;10460830;28;20059;-64
2023/09/28 19:06:22;;;;;;;21.27;3.47;;;;;;;19.40;80.93;101700.25;10454292;28;20056;-64
2023/09/28 19:11:46;;;;;;;13.07;3.10;;;;;;;19.28;80.62;101703.50;10469828;28;20075;-63
2023/09/28 19:17:09;;;;;;;16.95;3.58;;;;;;;19.23;81.00;101705.53;10461405;28;20052;-63
2023/09/28 19:22:34;;;;;;;13.98;3.58;;;;;;;19.16;81.59;101704.13;10452016;28;20050;-63
2023/09/28 19:27:56;;;;;;;15.35;3.47;;;;;;;19.11;81.71;101703.50;10457771;28;20062;-65
2023/09/28 19:33:18;;;;;;;16.05;3.88;;;;;;;19.02;82.06;101692.59;10467429;28;20041;-64
2023/09/28 19:38:40;;;;;;;16.25;4.03;;;;;;;18.94;82.21;101697.34;10468296;28;20099;-64
2023/09/28 19:44:10;;;;;;;16.88;4.18;;;;;;;18.89;82.50;101696.75;10455395;28;20071;-64
2023/09/28 19:49:35;;;;;;;15.57;4.38;;;;;;;18.82;82.71;101698.00;10467895;28;20036;-64
2023/09/28 19:54:56;;;;;;;19.08;4.45;;;;;;;18.79;83.41;101695.50;10469897;28;20513;-63
2023/09/28 20:00:18;;;;;;;18.65;4.38;;;;;;;18.73;83.17;101695.78;10467599;28;20044;-64
2023/09/28 20:05:42;;;;;;;20.58;4.30;;;;;;;18.70;83.05;101698.59;10466336;28;20141;-63
2023/09/28 20:11:07;;;;;;;20.20;4.27;;;;;;;18.69;83.34;101710.00;10467565;28;20127;-64
2023/09/28 20:16:34;;;;;;;17.13;4.43;;;;;;;18.66;83.63;101704.06;10467783;28;20853;-64
2023/09/28 20:21:59;;;;;;;17.63;4.05;;;;;;;18.59;83.79;101703.50;10469147;28;20052;-64
2023/09/28 20:27:26;;;;;;;14.73;3.83;;;;;;;18.49;83.80;101697.03;10480987;28;20672;-64
2023/09/28 20:32:51;;;;;;;16.35;3.92;;;;;;;18.43;84.26;101699.09;10474056;28;20501;-63
2023/09/28 20:38:15;;;;;;;17.38;3.90;;;;;;;18.35;84.38;101699.41;10465272;28;20131;-63
2023/09/28 20:43:37;;;;;;;17.02;3.80;;;;;;;18.34;84.91;101692.50;10471462;28;20462;-64
2023/09/28 20:49:00;;;;;;;17.80;4.68;;;;;;;18.33;85.36;101689.94;10476697;28;20043;-63
2023/09/28 20:54:24;;;;;;;15.60;4.78;;;;;;;18.27;85.17;101685.84;10464343;28;20396;-65
2023/09/28 20:59:49;;;;;;;21.23;4.82;;;;;;;18.20;85.08;101691.47;10471570;28;20154;-64
2023/09/28 21:05:11;;;;;;;23.38;4.82;;;;;;;18.16;85.41;101692.53;10474039;28;20174;-62
2023/09/28 21:10:36;;;;;;;17.75;4.32;;;;;;;18.17;85.62;101684.56;10473846;28;20049;-63
2023/09/28 21:15:58;;;;;;;16.15;4.60;;;;;;;18.15;85.91;101681.19;10451225;28;20061;-64
2023/09/28 21:21:20;;;;;;;23.00;5.20;;;;;;;18.17;85.86;101676.72;10460749;28;20111;-63
2023/09/28 21:26:42;;;;;;;15.45;4.47;;;;;;;18.13;85.13;101672.53;10468117;28;20068;-64
2023/09/28 21:32:04;;;;;;;13.80;4.00;;;;;;;18.20;84.71;101647.78;10462720;28;20123;-63
2023/09/28 21:37:25;;;;;;;24.00;4.60;;;;;;;18.18;84.55;101639.13;10452807;28;20047;-64
2023/09/28 21:42:47;;;;;;;22.88;4.50;;;;;;;18.22;84.49;101651.13;10462922;28;20496;-62
2023/09/28 21:48:09;;;;;;;20.10;4.25;;;;;;;18.12;84.41;101655.13;10454983;28;20653;-63
2023/09/28 21:53:31;;;;;;;16.40;4.22;;;;;;;18.05;84.87;101643.25;10458640;28;20080;-63
2023/09/28 21:58:53;;;;;;;15.35;4.20;;;;;;;18.03;84.87;101640.72;10469053;28;20385;-63
2023/09/28 22:04:15;;;;;;;21.45;4.75;;;;;;;18.00;85.25;101634.78;10469510;28;20087;-63
2023/09/28 22:09:37;;;;;;;16.60;4.85;;;;;;;17.96;85.15;101627.97;10467938;28;20044;-62
2023/09/28 22:14:59;;;;;;;19.95;4.43;;;;;;;17.94;85.56;101635.06;10467110;28;20052;-63
2023/09/28 22:20:21;;;;;;;17.13;4.20;;;;;;;17.88;85.48;101624.88;10463735;28;20094;-63
2023/09/28 22:25:43;;;;;;;18.25;4.30;;;;;;;17.84;85.66;101632.03;10470002;28;20098;-63
2023/09/28 22:31:04;;;;;;;21.90;4.55;;;;;;;17.84;85.28;101624.16;10455814;28;20044;-63
2023/09/28 22:36:26;;;;;;;20.05;4.60;;;;;;;17.80;85.23;101627.03;10472197;28;20475;-64
2023/09/28 22:41:48;;;;;;;14.15;4.97;;;;;;;17.84;85.87;101633.78;10468070;28;20048;-62
2023/09/28 22:47:10;;;;;;;18.38;4.80;;;;;;;17.83;85.66;101632.09;10467702;28;20476;-64
2023/09/28 22:52:35;;;;;;;21.17;5.20;;;;;;;17.82;85.58;101640.84;10466855;28;20079;-63
2023/09/28 22:57:58;;;;;;;15.30;5.40;;;;;;;17.75;86.10;101634.22;10484603;28;20072;-63
2023/09/28 23:03:27;;;;;;;15.95;4.95;;;;;;;17.75;86.79;101632.44;10460062;28;20048;-63
2023/09/28 23:08:49;;;;;;;12.30;4.70;;;;;;;17.74;86.69;101633.38;10465117;28;20105;-63
2023/09/28 23:14:12;;;;;;;20.33;5.18;;;;;;;17.73;86.34;101633.44;10468876;28;20069;-63
2023/09/28 23:19:33;;;;;;;21.20;5.18;;;;;;;17.74;86.60;101619.44;10467225;28;20056;-63
2023/09/28 23:24:55;;;;;;;18.13;5.20;;;;;;;17.78;86.64;101613.97;10465717;28;20054;-63
2023/09/28 23:30:18;;;;;;;12.85;4.90;;;;;;;17.79;86.29;101614.81;10466212;28;20033;-64
2023/09/28 23:35:41;;;;;;;22.30;4.90;;;;;;;17.78;86.63;101607.91;10455796;28;20057;-63
2023/09/28 23:41:05;;;;;;;17.58;5.45;;;;;;;17.75;86.99;101603.66;10468243;28;20048;-63
2023/09/28 23:46:27;;;;;;;16.13;4.73;;;;;;;17.79;86.58;101599.13;10469483;28;20146;-63
2023/09/28 23:51:48;;;;;;;18.90;5.35;;;;;;;17.79;86.57;101593.88;10474075;28;20122;-63
2023/09/28 23:57:10;;;;;;;15.85;4.85;;;;;;;17.80;86.52;101588.56;10477685;28;20049;-63
